Time;durP1;ratioP1;P1;durP2;ratioP2;P2;SDS_P1;SDS_P2;PMS_P1;PMS_P2;Temp;Humidity;BMP_temperature;BMP_pressure;BME280_temperature;BME280_humidity;BME280_pressure;Samples;Min_cycle;Max_cycle;Signal;HPM_P1;HPM_P2
2022/07/29 00:01:25;;;;;;;;;;;16.30;95.10;;;;;;5110983;28;19924;-73
2022/07/29 00:03:51;;;;;;;;;;;16.30;95.10;;;;;;5112280;28;19930;-73
2022/07/29 00:06:16;;;;;;;;;;;16.30;95.20;;;;;;5111578;28;19923;-73
2022/07/29 00:08:42;;;;;;;;;;;16.30;95.10;;;;;;5111453;28;19924;-73
2022/07/29 00:11:07;;;;;;;;;;;16.30;95.30;;;;;;5099538;28;19928;-73
2022/07/29 00:13:33;;;;;;;;;;;16.30;95.20;;;;;;5112006;28;19924;-73
2022/07/29 00:15:59;;;;;;;;;;;16.30;95.50;;;;;;5111729;28;19970;-73
2022/07/29 00:18:24;;;;;;;;;;;16.30;95.40;;;;;;5110224;28;19924;-73
2022/07/29 00:20:50;;;;;;;;;;;16.30;95.90;;;;;;5111595;28;20293;-73
2022/07/29 00:23:15;;;;;;;;;;;16.30;95.50;;;;;;5111727;28;19938;-73
2022/07/29 00:25:41;;;;;;;;;;;16.30;95.40;;;;;;5111467;28;19977;-73
2022/07/29 00:28:06;;;;;;;;;;;16.20;95.60;;;;;;5111541;28;19969;-73
2022/07/29 00:30:32;;;;;;;;;;;16.20;95.50;;;;;;5104858;28;20286;-73
2022/07/29 00:32:57;;;;;;;;;;;16.20;95.60;;;;;;5104665;28;19966;-73
2022/07/29 00:38:07;;;;;;;;;;;16.20;95.80;;;;;;5108376;28;19932;-72
2022/07/29 00:40:32;;;;;;;;;;;16.20;95.90;;;;;;5100704;28;19969;-72
2022/07/29 00:42:58;;;;;;;;;;;16.20;95.80;;;;;;5109858;28;20001;-73
2022/07/29 00:45:23;;;;;;;;;;;16.20;95.90;;;;;;5101966;28;19924;-73
2022/07/29 00:47:49;;;;;;;;;;;16.20;96.30;;;;;;5103532;28;19979;-72
2022/07/29 00:50:14;;;;;;;;;;;16.20;96.10;;;;;;5091167;28;19975;-74
2022/07/29 00:52:41;;;;;;;;;;;16.20;96.00;;;;;;5106208;28;20053;-72
2022/07/29 00:55:08;;;;;;;;;;;16.20;96.30;;;;;;5102639;28;19970;-72
2022/07/29 00:57:34;;;;;;;;;;;16.10;95.90;;;;;;5092908;28;20026;-72
2022/07/29 00:59:59;;;;;;;;;;;16.20;96.10;;;;;;5101091;28;19964;-73
2022/07/29 01:02:25;;;;;;;;;;;16.10;96.30;;;;;;5091535;28;20017;-73
2022/07/29 01:04:51;;;;;;;;;;;16.20;96.20;;;;;;5099728;28;20404;-72
2022/07/29 01:07:17;;;;;;;;;;;16.20;96.30;;;;;;5110496;28;20015;-73
2022/07/29 01:09:43;;;;;;;;;;;16.10;96.30;;;;;;5110752;28;20367;-73
2022/07/29 01:12:09;;;;;;;;;;;16.20;96.30;;;;;;5110899;28;19923;-73
2022/07/29 01:14:36;;;;;;;;;;;16.10;96.50;;;;;;5110879;28;19945;-72
2022/07/29 01:17:22;;;;;;;;;;;16.10;96.40;;;;;;5109039;28;19970;-73
2022/07/29 01:20:11;;;;;;;;;;;16.10;96.40;;;;;;5102533;28;19924;-74
2022/07/29 01:22:44;;;;;;;;;;;16.10;96.60;;;;;;5091577;28;19935;-73
2022/07/29 01:25:10;;;;;;;;;;;16.00;96.70;;;;;;5091969;28;19931;-73
2022/07/29 01:27:55;;;;;;;;;;;16.00;96.80;;;;;;5101717;28;19924;-73
2022/07/29 01:30:22;;;;;;;;;;;16.00;96.70;;;;;;5108194;28;19924;-73
2022/07/29 01:32:48;;;;;;;;;;;16.00;97.00;;;;;;5110654;28;19992;-73
2022/07/29 01:35:20;;;;;;;;;;;16.00;96.90;;;;;;5110049;28;19928;-73
2022/07/29 01:37:51;;;;;;;;;;;16.00;97.20;;;;;;5109274;28;20011;-73
2022/07/29 01:40:28;;;;;;;;;;;16.00;97.10;;;;;;5097012;28;19931;-73
2022/07/29 01:42:57;;;;;;;;;;;16.00;97.00;;;;;;5110078;28;20385;-73
2022/07/29 01:45:26;;;;;;;;;;;16.00;97.40;;;;;;5109366;28;19931;-72
2022/07/29 01:47:52;;;;;;;;;;;15.90;97.50;;;;;;5107838;28;19930;-73
2022/07/29 01:50:18;;;;;;;;;;;15.90;97.30;;;;;;5099063;28;20270;-72
2022/07/29 01:52:53;;;;;;;;;;;15.90;97.50;;;;;;5096958;28;19931;-73
2022/07/29 01:55:20;;;;;;;;;;;15.90;97.40;;;;;;5110229;28;19967;-72
2022/07/29 01:57:47;;;;;;;;;;;15.90;97.80;;;;;;5109938;28;20339;-73
2022/07/29 02:00:13;;;;;;;;;;;16.00;97.80;;;;;;5109860;28;20019;-73
2022/07/29 02:02:40;;;;;;;;;;;16.00;97.70;;;;;;5096575;28;19928;-74
2022/07/29 02:05:07;;;;;;;;;;;15.90;97.50;;;;;;5110275;28;19924;-73
2022/07/29 02:07:33;;;;;;;;;;;15.90;97.70;;;;;;5109923;28;19966;-73
2022/07/29 02:10:00;;;;;;;;;;;15.90;97.70;;;;;;5109571;28;19959;-73
2022/07/29 02:12:27;;;;;;;;;;;15.90;97.80;;;;;;5110002;28;19930;-73
2022/07/29 02:14:53;;;;;;;;;;;15.90;97.80;;;;;;5110299;28;19931;-73
2022/07/29 02:17:31;;;;;;;;;;;15.90;97.80;;;;;;5109425;28;19924;-73
2022/07/29 02:19:58;;;;;;;;;;;15.90;97.80;;;;;;5109561;28;19927;-73
2022/07/29 02:22:25;;;;;;;;;;;15.90;97.70;;;;;;5109487;28;19938;-73
2022/07/29 02:24:51;;;;;;;;;;;15.90;98.20;;;;;;5109765;28;20342;-72
2022/07/29 02:27:18;;;;;;;;;;;15.90;98.10;;;;;;5096562;28;19928;-73
2022/07/29 02:29:45;;;;;;;;;;;15.90;98.50;;;;;;5108760;28;19924;-73
2022/07/29 02:32:12;;;;;;;;;;;15.90;98.30;;;;;;5109622;28;20360;-73
2022/07/29 02:34:38;;;;;;;;;;;15.90;98.20;;;;;;5108525;28;19928;-71
2022/07/29 02:37:04;;;;;;;;;;;15.90;98.40;;;;;;5106737;28;19923;-71
2022/07/29 02:39:29;;;;;;;;;;;15.90;98.40;;;;;;5105006;28;20332;-71
2022/07/29 02:41:59;;;;;;;;;;;15.90;98.60;;;;;;5107858;28;20396;-71
2022/07/29 02:44:25;;;;;;;;;;;15.90;98.50;;;;;;5102496;28;19923;-71
2022/07/29 02:47:09;;;;;;;;;;;15.80;98.60;;;;;;5107948;28;19935;-72
2022/07/29 02:49:36;;;;;;;;;;;15.80;98.70;;;;;;5109511;28;20057;-71
2022/07/29 02:52:22;;;;;;;;;;;15.80;98.50;;;;;;5109608;28;19938;-71
2022/07/29 02:54:51;;;;;;;;;;;15.90;98.50;;;;;;5108422;28;20014;-71
2022/07/29 02:57:42;;;;;;;;;;;15.80;98.40;;;;;;5111765;28;19950;-71
2022/07/29 03:00:09;;;;;;;;;;;15.80;98.20;;;;;;5095414;28;19931;-71
2022/07/29 03:02:39;;;;;;;;;;;15.80;98.60;;;;;;5113491;28;20509;-72
2022/07/29 03:05:07;;;;;;;;;;;15.80;98.70;;;;;;5113337;28;19924;-71
2022/07/29 03:07:33;;;;;;;;;;;15.80;98.60;;;;;;5112945;28;19923;-71
2022/07/29 03:09:59;;;;;;;;;;;15.70;98.90;;;;;;5116924;27;20018;-71
2022/07/29 03:12:25;;;;;;;;;;;15.80;99.20;;;;;;5126317;27;20014;-71
2022/07/29 03:14:51;;;;;;;;;;;15.80;99.20;;;;;;5113169;28;19974;-72
2022/07/29 03:17:16;;;;;;;;;;;15.70;99.20;;;;;;5113175;28;19979;-71
2022/07/29 03:19:42;;;;;;;;;;;15.80;99.40;;;;;;5112222;28;19950;-71
2022/07/29 03:22:08;;;;;;;;;;;15.80;99.40;;;;;;5112383;28;19924;-71
2022/07/29 03:24:34;;;;;;;;;;;15.80;99.20;;;;;;5111726;28;20068;-72
2022/07/29 03:27:00;;;;;;;;;;;15.70;99.10;;;;;;5111563;28;20002;-71
2022/07/29 03:29:27;;;;;;;;;;;15.70;99.50;;;;;;5112655;28;20408;-71
2022/07/29 03:31:53;;;;;;;;;;;15.70;99.60;;;;;;5112780;28;19931;-72
2022/07/29 03:34:18;;;;;;;;;;;15.70;99.50;;;;;;5111983;28;19923;-72
2022/07/29 03:36:44;;;;;;;;;;;15.80;99.60;;;;;;5111791;28;20421;-71
2022/07/29 03:39:10;;;;;;;;;;;15.70;99.50;;;;;;5112196;28;20315;-71
2022/07/29 03:41:38;;;;;;;;;;;15.70;99.20;;;;;;5112026;28;19931;-71
2022/07/29 03:44:05;;;;;;;;;;;15.70;99.70;;;;;;5116457;27;19965;-72
2022/07/29 03:46:32;;;;;;;;;;;15.70;99.70;;;;;;5112461;28;20389;-71
2022/07/29 03:48:59;;;;;;;;;;;15.70;99.30;;;;;;5111845;28;19930;-72
2022/07/29 03:51:25;;;;;;;;;;;15.70;99.40;;;;;;5103911;28;19931;-71
2022/07/29 03:53:51;;;;;;;;;;;15.70;99.40;;;;;;5105768;28;19935;-72
2022/07/29 03:56:16;;;;;;;;;;;15.70;99.20;;;;;;5111665;28;19924;-71
2022/07/29 03:58:44;;;;;;;;;;;15.70;99.40;;;;;;5112178;28;19923;-71
2022/07/29 04:01:10;;;;;;;;;;;15.70;99.20;;;;;;5112150;28;19923;-72
2022/07/29 04:03:35;;;;;;;;;;;15.70;99.20;;;;;;5112318;28;19930;-72
2022/07/29 04:06:02;;;;;;;;;;;15.70;99.30;;;;;;5111655;28;19924;-71
2022/07/29 04:08:28;;;;;;;;;;;15.70;99.20;;;;;;5111142;28;19946;-71
2022/07/29 04:10:53;;;;;;;;;;;15.70;99.40;;;;;;5125248;27;20429;-71
2022/07/29 04:13:20;;;;;;;;;;;15.70;99.40;;;;;;5111891;27;20010;-72
2022/07/29 04:15:45;;;;;;;;;;;15.70;99.60;;;;;;5098797;28;19973;-71
2022/07/29 04:18:11;;;;;;;;;;;15.70;99.70;;;;;;5111412;28;19924;-71
2022/07/29 04:20:37;;;;;;;;;;;15.70;99.60;;;;;;5111568;28;19924;-71
2022/07/29 04:23:02;;;;;;;;;;;15.70;99.60;;;;;;5111919;28;19924;-72
2022/07/29 04:25:28;;;;;;;;;;;15.70;99.90;;;;;;5111971;28;19924;-71
2022/07/29 04:28:05;;;;;;;;;;;15.60;99.50;;;;;;5096829;28;19928;-71
2022/07/29 04:30:31;;;;;;;;;;;15.60;99.70;;;;;;5111574;28;19928;-71
2022/07/29 04:32:57;;;;;;;;;;;15.70;99.80;;;;;;5110120;28;20007;-71
2022/07/29 04:35:22;;;;;;;;;;;15.60;99.90;;;;;;5110495;28;20433;-71
2022/07/29 04:37:48;;;;;;;;;;;15.70;99.80;;;;;;5110643;28;20642;-71
2022/07/29 04:40:14;;;;;;;;;;;15.70;99.80;;;;;;5102062;28;20309;-71
2022/07/29 04:42:40;;;;;;;;;;;15.70;99.80;;;;;;5104392;28;19963;-72
2022/07/29 04:45:05;;;;;;;;;;;15.70;99.90;;;;;;5105804;28;19947;-72
2022/07/29 04:47:31;;;;;;;;;;;15.80;99.80;;;;;;5103979;28;20357;-71
2022/07/29 04:49:56;;;;;;;;;;;15.70;99.60;;;;;;5110044;28;20397;-72
2022/07/29 04:52:22;;;;;;;;;;;15.80;99.60;;;;;;5110292;28;20007;-71
2022/07/29 04:54:48;;;;;;;;;;;15.80;99.40;;;;;;5109902;28;20275;-71
2022/07/29 04:57:14;;;;;;;;;;;15.80;99.40;;;;;;5088523;28;19928;-71
2022/07/29 04:59:39;;;;;;;;;;;15.90;99.40;;;;;;5110492;28;19930;-72
2022/07/29 05:02:05;;;;;;;;;;;15.90;99.20;;;;;;5109678;28;19931;-71
2022/07/29 05:04:30;;;;;;;;;;;15.90;99.10;;;;;;5110058;28;19953;-71
2022/07/29 05:06:56;;;;;;;;;;;16.00;99.00;;;;;;5109812;28;19935;-72
2022/07/29 05:09:21;;;;;;;;;;;16.00;99.10;;;;;;5109921;28;20285;-71
2022/07/29 05:11:47;;;;;;;;;;;16.00;98.90;;;;;;5109167;28;19923;-72
2022/07/29 05:14:12;;;;;;;;;;;16.00;98.90;;;;;;5109157;28;19924;-71
2022/07/29 05:16:39;;;;;;;;;;;16.00;98.90;;;;;;5109169;28;19957;-71
2022/07/29 05:19:05;;;;;;;;;;;16.00;98.90;;;;;;5109861;28;19928;-71
2022/07/29 05:21:31;;;;;;;;;;;16.00;98.80;;;;;;5108115;28;19985;-72
2022/07/29 05:23:56;;;;;;;;;;;16.10;98.70;;;;;;5108364;28;19931;-71
2022/07/29 05:26:22;;;;;;;;;;;16.10;98.60;;;;;;5107954;28;20377;-71
2022/07/29 05:28:47;;;;;;;;;;;16.10;98.70;;;;;;5110221;28;19924;-71
2022/07/29 05:31:14;;;;;;;;;;;16.10;98.50;;;;;;5109231;28;19927;-71
2022/07/29 05:33:40;;;;;;;;;;;16.10;98.50;;;;;;5109709;28;20003;-71
2022/07/29 05:36:06;;;;;;;;;;;16.10;98.40;;;;;;5108109;28;19924;-71
2022/07/29 05:38:32;;;;;;;;;;;16.20;98.30;;;;;;5110786;28;20327;-71
2022/07/29 05:40:58;;;;;;;;;;;16.10;98.40;;;;;;5108586;28;19976;-72
2022/07/29 05:43:24;;;;;;;;;;;16.20;98.40;;;;;;5110089;28;19924;-70
2022/07/29 05:45:49;;;;;;;;;;;16.20;98.30;;;;;;5104859;28;19931;-71
2022/07/29 05:48:15;;;;;;;;;;;16.20;98.10;;;;;;5104852;28;19938;-71
2022/07/29 05:50:40;;;;;;;;;;;16.20;98.10;;;;;;5109974;28;19923;-71
2022/07/29 05:53:06;;;;;;;;;;;16.30;98.10;;;;;;5103350;28;19967;-71
2022/07/29 05:55:32;;;;;;;;;;;16.30;98.10;;;;;;5096229;28;19947;-71
2022/07/29 05:57:57;;;;;;;;;;;16.40;97.90;;;;;;5109957;28;20452;-70
2022/07/29 06:00:23;;;;;;;;;;;16.40;97.90;;;;;;5109978;28;20047;-71
2022/07/29 06:02:48;;;;;;;;;;;16.40;97.80;;;;;;5109683;28;19930;-71
2022/07/29 06:05:15;;;;;;;;;;;16.40;98.10;;;;;;5110092;28;20389;-71
2022/07/29 06:07:40;;;;;;;;;;;16.50;97.90;;;;;;5110014;28;19924;-71
2022/07/29 06:10:06;;;;;;;;;;;16.50;97.80;;;;;;5109648;28;19924;-71
2022/07/29 06:12:32;;;;;;;;;;;16.70;97.80;;;;;;5110473;28;20002;-71
2022/07/29 06:14:57;;;;;;;;;;;16.80;97.70;;;;;;5109481;28;19924;-71
2022/07/29 06:17:23;;;;;;;;;;;16.90;97.50;;;;;;5109307;28;20072;-71
2022/07/29 06:19:48;;;;;;;;;;;17.00;97.40;;;;;;5109737;28;20475;-71
2022/07/29 06:22:17;;;;;;;;;;;17.00;97.10;;;;;;5108901;28;20416;-71
2022/07/29 06:24:43;;;;;;;;;;;17.10;97.10;;;;;;5108971;28;19930;-71
2022/07/29 06:27:12;;;;;;;;;;;17.20;96.90;;;;;;5109912;28;20582;-71
2022/07/29 06:29:37;;;;;;;;;;;17.20;96.90;;;;;;5109161;28;19945;-71
2022/07/29 06:32:03;;;;;;;;;;;17.20;96.90;;;;;;5111437;28;20014;-71
2022/07/29 06:34:29;;;;;;;;;;;17.30;96.70;;;;;;5111542;28;19923;-71
2022/07/29 06:36:54;;;;;;;;;;;17.30;96.50;;;;;;5113542;28;20465;-71
2022/07/29 06:39:20;;;;;;;;;;;17.30;96.40;;;;;;5112759;28;19928;-71
2022/07/29 06:41:50;;;;;;;;;;;17.30;96.30;;;;;;5114026;28;20014;-71
2022/07/29 06:44:16;;;;;;;;;;;17.40;96.40;;;;;;5111872;28;20023;-71
2022/07/29 06:46:41;;;;;;;;;;;17.40;96.60;;;;;;5113839;28;19931;-71
2022/07/29 06:49:07;;;;;;;;;;;17.50;96.60;;;;;;5113078;28;19924;-71
2022/07/29 06:51:33;;;;;;;;;;;17.50;96.40;;;;;;5114142;27;20274;-71
2022/07/29 06:53:59;;;;;;;;;;;17.60;96.30;;;;;;5112892;28;20286;-71
2022/07/29 06:56:24;;;;;;;;;;;17.60;96.10;;;;;;5112230;28;19923;-71
2022/07/29 06:58:50;;;;;;;;;;;17.60;96.10;;;;;;5099814;28;20317;-71
2022/07/29 07:01:15;;;;;;;;;;;17.60;95.90;;;;;;5113487;28;20469;-71
2022/07/29 07:03:41;;;;;;;;;;;17.60;95.90;;;;;;5112929;28;20016;-71
2022/07/29 07:06:07;;;;;;;;;;;17.60;96.00;;;;;;5113504;28;19931;-71
2022/07/29 07:08:33;;;;;;;;;;;17.60;96.10;;;;;;5099431;28;19924;-71
2022/07/29 07:10:59;;;;;;;;;;;17.70;96.20;;;;;;5100487;28;19924;-71
2022/07/29 07:13:24;;;;;;;;;;;17.70;96.10;;;;;;5098813;28;19924;-71
2022/07/29 07:15:51;;;;;;;;;;;17.80;96.00;;;;;;5105796;28;19928;-71
2022/07/29 07:18:18;;;;;;;;;;;17.80;95.80;;;;;;5093453;28;19924;-71
2022/07/29 07:20:44;;;;;;;;;;;17.80;95.70;;;;;;5112995;28;19931;-71
2022/07/29 07:23:09;;;;;;;;;;;17.80;95.50;;;;;;5098881;28;19928;-72
2022/07/29 07:25:35;;;;;;;;;;;17.80;95.60;;;;;;5100653;28;20378;-71
2022/07/29 07:28:00;;;;;;;;;;;17.80;95.60;;;;;;5112115;28;19934;-71
2022/07/29 07:30:27;;;;;;;;;;;17.80;95.50;;;;;;5100212;28;20373;-71
2022/07/29 07:32:52;;;;;;;;;;;17.80;95.90;;;;;;5113004;27;19976;-71
2022/07/29 07:35:18;;;;;;;;;;;17.90;95.60;;;;;;5104927;28;19924;-72
2022/07/29 07:37:43;;;;;;;;;;;17.90;95.60;;;;;;5107030;28;19924;-71
2022/07/29 07:40:11;;;;;;;;;;;17.90;95.80;;;;;;5113097;27;20405;-72
2022/07/29 07:42:37;;;;;;;;;;;18.10;95.70;;;;;;5111568;27;19931;-71
2022/07/29 07:45:03;;;;;;;;;;;18.10;95.60;;;;;;5115068;27;19923;-72
2022/07/29 07:47:28;;;;;;;;;;;18.20;95.60;;;;;;5099014;28;19924;-71
2022/07/29 07:49:54;;;;;;;;;;;18.30;95.60;;;;;;5104524;28;19973;-72
2022/07/29 07:52:20;;;;;;;;;;;18.40;95.60;;;;;;5105552;28;19924;-73
2022/07/29 07:54:45;;;;;;;;;;;18.50;95.20;;;;;;5105796;28;20344;-73
2022/07/29 07:57:11;;;;;;;;;;;18.50;95.00;;;;;;5093404;28;19931;-72
2022/07/29 07:59:37;;;;;;;;;;;18.60;94.70;;;;;;5105506;28;20282;-72
2022/07/29 08:02:03;;;;;;;;;;;18.60;94.90;;;;;;5091802;28;20018;-74
2022/07/29 08:04:29;;;;;;;;;;;18.70;94.80;;;;;;5105022;28;19938;-73
2022/07/29 08:06:55;;;;;;;;;;;18.80;94.60;;;;;;5087054;28;19947;-73
2022/07/29 08:09:21;;;;;;;;;;;18.80;94.30;;;;;;5104751;28;19930;-72
2022/07/29 08:11:46;;;;;;;;;;;18.80;94.30;;;;;;5091934;28;19924;-72
2022/07/29 08:14:13;;;;;;;;;;;18.90;94.20;;;;;;5098737;28;20336;-72
2022/07/29 08:16:39;;;;;;;;;;;18.90;93.90;;;;;;5098958;28;20458;-72
2022/07/29 08:19:05;;;;;;;;;;;19.00;93.90;;;;;;5099645;27;19924;-74
2022/07/29 08:21:30;;;;;;;;;;;19.10;94.10;;;;;;5111840;28;19997;-72
2022/07/29 08:24:42;;;;;;;;;;;19.20;94.10;;;;;;5111748;28;19928;-72
2022/07/29 08:26:42;;;;;;;;;;;19.30;93.60;;;;;;5111374;28;19924;-72
2022/07/29 08:29:08;;;;;;;;;;;19.40;93.50;;;;;;5101718;28;19975;-72
2022/07/29 08:31:33;;;;;;;;;;;19.40;93.50;;;;;;5105599;28;19978;-73
2022/07/29 08:33:59;;;;;;;;;;;19.60;93.50;;;;;;5101653;28;19924;-72
2022/07/29 08:36:25;;;;;;;;;;;19.60;93.40;;;;;;5111288;28;19924;-72
2022/07/29 08:38:51;;;;;;;;;;;19.80;93.10;;;;;;5101697;28;19934;-72
2022/07/29 08:41:18;;;;;;;;;;;19.80;92.40;;;;;;5108300;28;19931;-72
2022/07/29 08:43:44;;;;;;;;;;;19.80;92.40;;;;;;5115291;27;19947;-72
2022/07/29 08:46:10;;;;;;;;;;;19.80;92.60;;;;;;5110920;28;20390;-73
2022/07/29 08:48:35;;;;;;;;;;;20.00;92.50;;;;;;5111404;28;20048;-73
2022/07/29 08:51:01;;;;;;;;;;;20.10;92.30;;;;;;5110633;28;19928;-72
2022/07/29 08:53:27;;;;;;;;;;;20.20;92.50;;;;;;5110314;28;20002;-72
2022/07/29 08:55:54;;;;;;;;;;;20.30;91.80;;;;;;5110052;28;19932;-72
2022/07/29 08:58:20;;;;;;;;;;;20.30;91.30;;;;;;5111214;27;20393;-72
2022/07/29 09:00:49;;;;;;;;;;;20.30;91.10;;;;;;5110506;28;20336;-73
2022/07/29 09:03:16;;;;;;;;;;;20.40;91.10;;;;;;5110469;28;19938;-72
2022/07/29 09:05:42;;;;;;;;;;;20.50;91.20;;;;;;5110886;28;19931;-72
2022/07/29 09:08:08;;;;;;;;;;;20.60;90.90;;;;;;5109784;28;20301;-72
2022/07/29 09:10:37;;;;;;;;;;;20.60;91.00;;;;;;5109538;28;20026;-74
2022/07/29 09:13:03;;;;;;;;;;;20.60;90.80;;;;;;5110801;27;19928;-72
2022/07/29 09:15:28;;;;;;;;;;;20.70;90.80;;;;;;5109743;28;19923;-73
2022/07/29 09:17:56;;;;;;;;;;;20.70;91.00;;;;;;5109982;28;19963;-72
2022/07/29 09:20:22;;;;;;;;;;;20.80;90.80;;;;;;5109845;28;19935;-73
2022/07/29 09:22:49;;;;;;;;;;;20.80;90.80;;;;;;5109710;28;20011;-72
2022/07/29 09:25:35;;;;;;;;;;;20.80;89.90;;;;;;5109745;28;19924;-72
2022/07/29 09:28:07;;;;;;;;;;;20.70;90.00;;;;;;5109340;28;19971;-73
2022/07/29 09:30:33;;;;;;;;;;;20.60;89.30;;;;;;5102159;28;19931;-72
2022/07/29 09:33:03;;;;;;;;;;;20.50;89.50;;;;;;5091773;28;19924;-73
2022/07/29 09:35:29;;;;;;;;;;;20.50;90.20;;;;;;5101101;28;19924;-72
2022/07/29 09:37:55;;;;;;;;;;;20.40;90.30;;;;;;5105599;28;20377;-72
2022/07/29 09:40:22;;;;;;;;;;;20.40;90.50;;;;;;5101325;28;20015;-72
2022/07/29 09:42:47;;;;;;;;;;;20.40;90.10;;;;;;5106079;28;20749;-72
2022/07/29 09:45:26;;;;;;;;;;;20.30;90.30;;;;;;5105562;28;19931;-73
2022/07/29 09:47:51;;;;;;;;;;;20.30;90.90;;;;;;5106690;28;20326;-73
2022/07/29 09:50:23;;;;;;;;;;;20.20;90.70;;;;;;5110244;28;19930;-72
2022/07/29 09:52:49;;;;;;;;;;;20.20;90.80;;;;;;5110107;28;20301;-72
2022/07/29 09:55:16;;;;;;;;;;;20.10;90.90;;;;;;5110084;28;19932;-73
2022/07/29 09:57:42;;;;;;;;;;;20.10;90.90;;;;;;5109523;28;19980;-72
2022/07/29 10:00:15;;;;;;;;;;;20.10;90.80;;;;;;5109918;28;19923;-72
2022/07/29 10:02:43;;;;;;;;;;;20.10;91.00;;;;;;5110068;28;19924;-72
2022/07/29 10:05:16;;;;;;;;;;;20.20;91.50;;;;;;5109948;28;20022;-73
2022/07/29 10:07:49;;;;;;;;;;;20.30;91.60;;;;;;5108523;28;19928;-72
2022/07/29 10:10:19;;;;;;;;;;;20.50;91.70;;;;;;5110056;28;20810;-72
2022/07/29 10:12:51;;;;;;;;;;;20.60;91.40;;;;;;5105705;28;19930;-73
2022/07/29 10:15:16;;;;;;;;;;;20.60;91.40;;;;;;5105098;28;19976;-72
2022/07/29 10:17:42;;;;;;;;;;;20.70;91.50;;;;;;5110112;28;20031;-72
2022/07/29 10:20:08;;;;;;;;;;;20.80;91.30;;;;;;5105592;28;20358;-73
2022/07/29 10:22:33;;;;;;;;;;;20.90;91.50;;;;;;5110065;28;19954;-73
2022/07/29 10:24:59;;;;;;;;;;;21.00;90.90;;;;;;5109297;28;20340;-72
2022/07/29 10:27:25;;;;;;;;;;;21.00;91.10;;;;;;5109837;28;19949;-72
2022/07/29 10:29:50;;;;;;;;;;;21.10;90.90;;;;;;5106834;28;19979;-72
2022/07/29 10:32:25;;;;;;;;;;;21.10;90.80;;;;;;5109259;28;19924;-72
2022/07/29 10:34:53;;;;;;;;;;;21.10;91.00;;;;;;5108500;28;19984;-74
2022/07/29 10:37:27;;;;;;;;;;;21.20;91.00;;;;;;5110042;28;19924;-73
2022/07/29 10:39:59;;;;;;;;;;;21.30;91.10;;;;;;5108332;28;20010;-73
2022/07/29 10:42:25;;;;;;;;;;;21.30;91.10;;;;;;5108126;28;19928;-72
2022/07/29 10:44:51;;;;;;;;;;;21.30;91.20;;;;;;5108858;28;19927;-74
2022/07/29 10:47:21;;;;;;;;;;;21.30;91.10;;;;;;5109573;28;20343;-72
2022/07/29 10:49:57;;;;;;;;;;;21.40;91.10;;;;;;5096392;28;19924;-73
2022/07/29 10:52:24;;;;;;;;;;;21.50;91.10;;;;;;5091278;28;19923;-73
2022/07/29 10:54:53;;;;;;;;;;;21.50;91.20;;;;;;5109477;28;19947;-73
2022/07/29 10:57:20;;;;;;;;;;;21.50;90.80;;;;;;5109152;28;19927;-74
2022/07/29 10:59:50;;;;;;;;;;;21.60;90.40;;;;;;5101480;28;19969;-73
2022/07/29 11:02:36;;;;;;;;;;;21.70;90.60;;;;;;5091723;28;19932;-72
2022/07/29 11:05:08;;;;;;;;;;;21.70;90.60;;;;;;5109187;28;19931;-73
2022/07/29 11:07:35;;;;;;;;;;;21.80;89.70;;;;;;5109487;28;19927;-72
2022/07/29 11:10:13;;;;;;;;;;;21.80;89.40;;;;;;5109668;28;19924;-71
2022/07/29 11:12:38;;;;;;;;;;;21.80;88.90;;;;;;5089235;28;19924;-72
2022/07/29 11:15:20;;;;;;;;;;;21.80;87.80;;;;;;5089794;28;19924;-72
2022/07/29 11:17:56;;;;;;;;;;;21.90;88.60;;;;;;5089883;28;19924;-72
2022/07/29 11:20:30;;;;;;;;;;;21.90;87.70;;;;;;5094014;28;19924;-72
2022/07/29 11:22:56;;;;;;;;;;;22.00;87.30;;;;;;5105101;28;19932;-73
2022/07/29 11:25:22;;;;;;;;;;;22.10;87.50;;;;;;5112693;28;20111;-72
2022/07/29 11:27:47;;;;;;;;;;;22.10;86.10;;;;;;5112742;28;20402;-72
2022/07/29 11:30:13;;;;;;;;;;;22.20;86.20;;;;;;5093502;28;19924;-71
2022/07/29 11:32:40;;;;;;;;;;;22.30;86.80;;;;;;5105197;28;19924;-72
2022/07/29 11:35:17;;;;;;;;;;;22.40;86.20;;;;;;5106803;28;20014;-71
2022/07/29 11:37:42;;;;;;;;;;;22.50;86.70;;;;;;5093467;28;19950;-73
2022/07/29 11:40:10;;;;;;;;;;;22.50;86.40;;;;;;5093234;28;19924;-71
2022/07/29 11:42:35;;;;;;;;;;;22.50;86.20;;;;;;5093694;28;20263;-72
2022/07/29 11:45:05;;;;;;;;;;;22.60;86.90;;;;;;5112198;28;19931;-71
2022/07/29 11:47:32;;;;;;;;;;;22.70;86.50;;;;;;5111742;28;20499;-72
2022/07/29 11:49:58;;;;;;;;;;;22.70;85.60;;;;;;5099589;28;19924;-72
2022/07/29 11:52:32;;;;;;;;;;;22.80;85.60;;;;;;5112175;28;20552;-71
2022/07/29 11:54:57;;;;;;;;;;;22.90;86.00;;;;;;5112568;28;19967;-71
2022/07/29 11:57:23;;;;;;;;;;;23.00;85.20;;;;;;5112140;27;19963;-72
2022/07/29 11:59:48;;;;;;;;;;;23.00;86.00;;;;;;5111837;28;19928;-72
2022/07/29 12:02:15;;;;;;;;;;;23.20;85.40;;;;;;5096749;28;20077;-72
2022/07/29 12:04:55;;;;;;;;;;;23.30;85.90;;;;;;5101310;28;19931;-72
2022/07/29 12:07:33;;;;;;;;;;;23.40;85.90;;;;;;5110790;28;19935;-71
2022/07/29 12:09:59;;;;;;;;;;;23.50;86.00;;;;;;5112337;28;19923;-71
2022/07/29 12:12:25;;;;;;;;;;;23.60;85.20;;;;;;5098340;28;19931;-71
2022/07/29 12:14:51;;;;;;;;;;;23.70;85.70;;;;;;5111879;28;19923;-71
2022/07/29 12:17:27;;;;;;;;;;;23.70;85.00;;;;;;5111571;28;20293;-71
2022/07/29 12:19:53;;;;;;;;;;;23.80;84.70;;;;;;5111879;28;19931;-71
2022/07/29 12:22:26;;;;;;;;;;;23.90;84.70;;;;;;5111530;28;20398;-71
2022/07/29 12:24:51;;;;;;;;;;;24.00;84.50;;;;;;5093456;28;19935;-71
2022/07/29 12:27:17;;;;;;;;;;;24.10;84.30;;;;;;5111706;28;20293;-71
2022/07/29 12:29:42;;;;;;;;;;;24.20;83.20;;;;;;5109765;28;19923;-72
2022/07/29 12:32:08;;;;;;;;;;;24.30;81.50;;;;;;5091525;28;19928;-71
2022/07/29 12:34:34;;;;;;;;;;;24.30;81.00;;;;;;5106301;28;19969;-71
2022/07/29 12:37:00;;;;;;;;;;;24.40;81.10;;;;;;5111596;28;19928;-71
2022/07/29 12:39:27;;;;;;;;;;;24.60;80.00;;;;;;5111798;28;19967;-71
2022/07/29 12:41:53;;;;;;;;;;;24.70;79.10;;;;;;5111803;28;19969;-71
2022/07/29 12:44:18;;;;;;;;;;;24.80;81.40;;;;;;5114889;27;19928;-71
2022/07/29 12:46:46;;;;;;;;;;;25.00;81.10;;;;;;5111498;28;19967;-72
2022/07/29 12:49:20;;;;;;;;;;;25.10;79.90;;;;;;5095374;28;19974;-72
2022/07/29 12:51:46;;;;;;;;;;;25.10;78.80;;;;;;5100433;28;20386;-72
2022/07/29 12:54:13;;;;;;;;;;;25.00;77.70;;;;;;5110824;28;19930;-71
2022/07/29 12:56:39;;;;;;;;;;;24.80;78.90;;;;;;5111839;28;19923;-71
2022/07/29 12:59:18;;;;;;;;;;;24.70;79.30;;;;;;5110023;28;19931;-71
2022/07/29 13:01:44;;;;;;;;;;;24.70;78.80;;;;;;5100091;28;20596;-72
2022/07/29 13:04:10;;;;;;;;;;;24.60;78.70;;;;;;5095415;28;19924;-71
2022/07/29 13:06:38;;;;;;;;;;;24.50;79.00;;;;;;5110131;28;20018;-71
2022/07/29 13:09:10;;;;;;;;;;;24.40;79.20;;;;;;5105649;28;21015;-71
2022/07/29 13:11:39;;;;;;;;;;;24.30;78.50;;;;;;5091002;28;19932;-71
2022/07/29 13:14:05;;;;;;;;;;;24.30;78.90;;;;;;5109060;28;20397;-71
2022/07/29 13:16:31;;;;;;;;;;;24.20;78.90;;;;;;5110953;28;19967;-72
2022/07/29 13:19:06;;;;;;;;;;;24.10;78.60;;;;;;5110050;28;19997;-71
2022/07/29 13:21:32;;;;;;;;;;;24.10;79.60;;;;;;5110608;28;19977;-71
2022/07/29 13:23:58;;;;;;;;;;;24.00;79.40;;;;;;5110748;28;19923;-72
2022/07/29 13:26:23;;;;;;;;;;;24.00;79.30;;;;;;5096490;28;19930;-73
2022/07/29 13:28:49;;;;;;;;;;;23.90;80.10;;;;;;5097689;28;19923;-71
2022/07/29 13:31:15;;;;;;;;;;;23.90;79.50;;;;;;5109743;28;19931;-71
2022/07/29 13:33:41;;;;;;;;;;;23.90;79.80;;;;;;5090529;28;19955;-72
2022/07/29 13:36:06;;;;;;;;;;;23.90;79.50;;;;;;5103673;28;19923;-73
2022/07/29 13:38:32;;;;;;;;;;;23.90;80.30;;;;;;5110862;28;19970;-72
2022/07/29 13:40:58;;;;;;;;;;;23.80;79.90;;;;;;5108907;28;19963;-73
2022/07/29 13:43:23;;;;;;;;;;;23.80;79.60;;;;;;5110349;28;20022;-72
2022/07/29 13:45:49;;;;;;;;;;;23.80;80.40;;;;;;5110252;28;19931;-73
2022/07/29 13:48:14;;;;;;;;;;;23.90;80.90;;;;;;5103513;28;20183;-72
2022/07/29 13:50:40;;;;;;;;;;;23.90;80.10;;;;;;5103121;28;20294;-72
2022/07/29 13:53:05;;;;;;;;;;;23.90;80.30;;;;;;5109962;28;19968;-73
2022/07/29 13:55:31;;;;;;;;;;;23.90;80.70;;;;;;5096832;28;20705;-72
2022/07/29 13:57:56;;;;;;;;;;;23.90;81.00;;;;;;5110439;28;19924;-73
2022/07/29 14:00:23;;;;;;;;;;;24.00;80.90;;;;;;5110264;28;19928;-71
2022/07/29 14:02:49;;;;;;;;;;;24.00;81.00;;;;;;5089778;28;19939;-72
2022/07/29 14:05:14;;;;;;;;;;;24.00;80.40;;;;;;5090126;28;19928;-72
2022/07/29 14:07:40;;;;;;;;;;;24.00;80.60;;;;;;5097096;28;19959;-71
2022/07/29 14:10:06;;;;;;;;;;;24.00;80.40;;;;;;5096421;28;20431;-72
2022/07/29 14:12:31;;;;;;;;;;;23.90;80.10;;;;;;5110348;28;20291;-72
2022/07/29 14:14:57;;;;;;;;;;;23.90;80.50;;;;;;5096589;28;19999;-73
2022/07/29 14:17:23;;;;;;;;;;;23.90;80.20;;;;;;5103411;28;19932;-71
2022/07/29 14:19:48;;;;;;;;;;;23.90;80.40;;;;;;5103990;28;19924;-72